ADDS METAR Data INFO
IDs: Format: Raw Decoded Include TAF

Data at: 1354 UTC 17 Dec 2017

KRKP 171346Z AUTO 01006KT 3/4SM BR OVC002 09/09 A3007 RMK AO2 T00940094
KRKP 171334Z AUTO 02005KT 1 1/2SM BR OVC003 09/09 A3008 RMK AO2 T00940094
KRKP 171326Z AUTO 36006KT 1SM BR OVC003 09/09 A3008 RMK AO2 T00940094
KRKP 171317Z AUTO 01004KT 3/4SM BR OVC002 09/09 A3008 RMK AO2 T00940094
KRKP 171304Z AUTO 04004KT 1SM BR OVC002 09/09 A3008 RMK AO2 T00940094
KRKP 171253Z AUTO 01005KT 1 1/4SM BR OVC002 09/09 A3008 RMK AO2 SLP187 T00940094
KRKP 171242Z AUTO 02003KT 1SM BR OVC002 09/09 A3008 RMK AO2 T00940094
KRKP 171226Z AUTO 03004KT 3/4SM BR OVC002 09/09 A3007 RMK AO2 T00940094
KRKP 171216Z AUTO 01005KT 1 1/4SM BR OVC002 09/09 A3007 RMK AO2 T00890089
KRKP 171206Z AUTO 01006KT 3/4SM BR OVC002 09/09 A3007 RMK AO2 T00890089
KRKP 171153Z AUTO 36006KT 1 1/2SM BR OVC002 09/09 A3007 RMK AO2 SLP184 70014 T00890089 10094 20089 53010
KRKP 171128Z AUTO 35004KT 1 1/4SM BR OVC003 09/09 A3006 RMK AO2 T00940089
KRKP 171053Z AUTO 36005KT 1/2SM FG VV003 09/09 A3005 RMK AO2 SLP178 T00890089
KRKP 171009Z AUTO 35004KT 3/4SM BR OVC002 09/09 A3005 RMK AO2 T00890089
KRKP 170953Z AUTO 35004KT 1SM BR OVC002 09/09 A3004 RMK AO2 SLP175 T00890089
KRKP 170927Z AUTO 33007KT 3/4SM BR OVC002 09/09 A3003 RMK AO2 T00890089
KRKP 170906Z AUTO 33006KT 1SM BR OVC003 09/09 A3004 RMK AO2 T00890089
KRKP 170853Z AUTO 33007KT 3/4SM BR OVC003 09/09 A3004 RMK AO2 SLP174 T00890089 57003
KRKP 170844Z AUTO 32005KT 1SM BR OVC003 09/09 A3004 RMK AO2 T00890089
KRKP 170824Z AUTO 00000KT 2SM BR OVC004 09/08 A3005 RMK AO2 T00890083
KRKP 170753Z AUTO 00000KT 6SM BR OVC004 09/08 A3004 RMK AO2 SLP174 T00890083
KRKP 170714Z AUTO 36004KT 5SM BR OVC004 09/08 A3005 RMK AO2 CIG 003V007 T00890083
KRKP 170653Z AUTO 34005KT 8SM OVC007 09/08 A3005 RMK AO2 SLP177 T00940083
KRKP 170623Z AUTO 35005KT 9SM OVC007 09/08 A3005 RMK AO2 T00940083
KRKP 170553Z AUTO 35006KT 9SM OVC008 09/08 A3005 RMK AO2 CIG 006V009 SLP177 60000 T00890083 10133 20089 401440089 53003
KRKP 170550Z AUTO 36007KT 10SM OVC008 09/08 A3005 RMK AO2
KRKP 170522Z AUTO 34010KT 9SM OVC007 09/08 A3004 RMK AO2 CIG 006V010 T00890078
KRKP 170507Z AUTO 33009KT 9SM OVC008 09/08 A3004 RMK AO2 CIG 006V010 T00890083
KRKP 170453Z AUTO 34010KT 9SM OVC007 09/08 A3004 RMK AO2 SLP173 T00890078
KRKP 170353Z AUTO 32013KT 6SM BR OVC007 09/08 A3004 RMK AO2 SLP173 T00890083
KRKP 170253Z AUTO 30012KT 7SM OVC006 09/08 A3003 RMK AO2 SLP169 60000 T00890083 53039
KRKP 170229Z AUTO 32011KT 7SM OVC006 09/09 A3000 RMK AO2 T00940089
KRKP 170153Z AUTO 31013KT 6SM BR OVC005 09/09 A2998 RMK AO2 RAE49 SLP154 P0000 T00940094
KRKP 170145Z AUTO 31013KT 6SM -RA BR OVC005 10/09 A2998 RMK AO2 P0000 T01000094
KRKP 170104Z AUTO 31011KT 5SM -RA BR OVC004 11/11 A2996 RMK AO2 P0000 T01060106
KRKP 170053Z AUTO 33011KT 6SM -RA BR OVC006 11/11 A2994 RMK AO2 WSHFT 0024 RAE37B46 CIG 003V008 SLP141 P0000 T01110111
KRKP 170044Z AUTO 34010KT 6SM BR OVC004 11/11 A2994 RMK AO2 WSHFT 0024 RAE37 CIG 003V008 P0000 T01110111
KRKP 162353Z AUTO 33008KT 270V360 5SM -RA BR BKN004 OVC008 13/13 A2991 RMK AO2 CIG 003V008 SLP130 P0004 60014 T01330128 10144 20128 58016
KRKP 162339Z AUTO 01010KT 3SM RA BR BKN005 OVC008 13/13 A2992 RMK AO2 CIG 003V007 P0002 T01330128
KRKP 162329Z AUTO 01009KT 3SM -RA BR BKN003 OVC009 13/13 A2992 RMK AO2 CIG 003V007 P0000 T01330128
KRKP 162317Z AUTO 01009KT 2SM RA BR OVC003 13/13 A2993 RMK AO2 P0000 T01330133
KRKP 162300Z AUTO 02009KT 1 1/2SM -RA BR OVC003 14/13 A2993 RMK AO2 P0000 T01390133
KRKP 162253Z AUTO 01008KT 1 1/2SM +RA BR OVC004 14/13 A2993 RMK AO2 SLP137 P0009 T01390133
KRKP 162248Z AUTO 36008KT 2SM -RA BR OVC004 14/13 A2994 RMK AO2 P0007
KRKP 162245Z AUTO 36006KT 3SM -RA BR OVC004 13/13 A2994 RMK AO2 P0006 T01330128
KRKP 162234Z AUTO 33005KT 2 1/2SM -RA BR OVC004 14/14 A2995 RMK AO2 P0006 T01390139
KRKP 162231Z AUTO 35004KT 1 3/4SM -RA BR OVC004 14/14 A2995 RMK AO2 P0006 T01390139
KRKP 162201Z AUTO 04008KT 1 1/2SM -RA BR OVC005 14/13 A2996 RMK AO2 P0001 T01390133
KRKP 162153Z AUTO 03008KT 1 1/4SM RA BR OVC007 14/13 A2996 RMK AO2 CIG 005V009 SLP146 P0001 T01390133
KRKP 162151Z AUTO 03009KT 1 1/2SM RA BR OVC007 14/13 A2996 RMK AO2 CIG 005V009 P0001
KRKP 162141Z AUTO 04008KT 2SM -RA BR OVC009 14/13 A2996 RMK AO2 CIG 006V011 P0000 T01390133
KRKP 162128Z AUTO 04009KT 2 1/2SM -RA BR OVC010 14/13 A2997 RMK AO2 P0000 T01390133
KRKP 162114Z AUTO 04010KT 1 3/4SM -RA BR OVC011 14/13 A2997 RMK AO2 P0000 T01390133
KRKP 162101Z AUTO 05010KT 2SM -RA BR OVC010 14/13 A2998 RMK AO2 P0000 T01390133
KRKP 162053Z AUTO 05011KT 1 3/4SM -RA BR OVC010 14/13 A2998 RMK AO2 RAB15 SLP154 P0000 60000 T01390133 56024
KRKP 162035Z AUTO 05010KT 2SM -RA BR OVC010 14/13 A2999 RMK AO2 RAB15 CIG 009V013 P0000 T01390128
KRKP 162015Z AUTO 04007KT 4SM -RA OVC014 14/12 A3000 RMK AO2 RAB15 P0000 T01440117
KRKP 161953Z AUTO 05009KT 6SM HZ OVC018 14/12 A3001 RMK AO2 SLP164 T01440117
KRKP 161853Z AUTO 05009KT 8SM OVC021 13/10 A3005 RMK AO2 SLP178 T01330100
KRKP 161753Z AUTO 06012KT 9SM OVC024 13/09 A3010 RMK AO2 SLP195 T01330094 10133 20100 58021
KRKP 161653Z AUTO 06011KT 10SM OVC027 13/08 A3013 RMK AO2 SLP204 T01330078
KRKP 161621Z AUTO 05009KT 10SM OVC028 13/07 A3014 RMK AO2 T01280067
KRKP 161553Z AUTO 05011KT 10SM OVC034 12/05 A3014 RMK AO2 PRESFR SLP207 T01220050
KRKP 161453Z AUTO 04008KT 10SM OVC038 11/06 A3016 RMK AO2 SLP216 T01110061 58002
KRKP 161353Z AUTO 04009KT 10SM OVC039 11/06 A3017 RMK AO2 SLP217 T01060061
KRKP 161253Z AUTO 04006KT 10SM SCT043 OVC060 10/06 A3017 RMK AO2 SLP218 T01000061
KRKP 161153Z AUTO 03007KT 10SM OVC060 10/06 A3017 RMK AO2 SLP218 T01000056 10106 20100 58018
KRKP 161053Z AUTO 36005KT 10SM OVC070 10/06 A3020 RMK AO2 SLP227 T01000056
KRKP 160953Z AUTO 03004KT 10SM OVC075 11/05 A3021 RMK AO2 SLP232 T01060050
KRKP 160853Z AUTO 36004KT 10SM SCT050 OVC075 11/06 A3022 RMK AO2 SLP236 T01060061 58014
KRKP 160753Z AUTO 00000KT 10SM OVC080 11/07 A3024 RMK AO2 SLP240 T01060072
KRKP 160653Z AUTO 00000KT 10SM OVC060 11/07 A3026 RMK AO2 SLP247 T01060072
KRKP 160553Z AUTO 31005KT 10SM OVC065 11/07 A3027 RMK AO2 SLP250 60000 T01060072 10106 20089 401390083 58013
KRKP 160453Z AUTO 29005KT 10SM OVC070 11/07 A3029 RMK AO2 SLP257 T01060072
KRKP 160353Z AUTO 27005KT 10SM BKN110 10/06 A3030 RMK AO2 SLP261 T01000061
KRKP 160253Z AUTO 29005KT 10SM OVC110 10/06 A3030 RMK AO2 SLP263 60000 T01000056 53008